Terminal Aerodrome Forecast
Issued by NWS Mt. Holly, NJ

Home | Current Version | Previous Version | Text Only | Print | Product List | Glossary On
Versions: 1 2 3 4 5 6 7 8 9 10 11 12 13 14 15 16 17 18 19 20 21 22 23
601
FTUS41 KPHI 190535
TAFABE
TAF
KABE 190535Z 1906/2006 07004KT P6SM SCT200
     FM191200 10004KT P6SM BKN040
     FM191800 17008KT 4SM -RA OVC015
     FM192100 16005KT 3SM -RA OVC007
     FM200100 VRB02KT 1SM BR OVC005=

USA.gov is the U.S. government's official web portal to all federal, state and local government web resources and services.